www.cux-wetter.de
Wetterdaten: Mittwoch, 16.12.2009
Datum Zeit Temp. A. Feuchte A. Luftdruck Regen Wind Richtung Richtung Sonnenschein Solar Taupunkt Windchill Windben
16.12.2009 00:02 -0,4 C 76 % 1015,5 hPa 0,0 l/m 11,5 km/h (2 Bft) W-SW 255 0 min 0 W/m -4,1 C -5,1 C 11,5 km/h (2 Bft)
16.12.2009 00:07 -0,4 C 76 % 1015,5 hPa 0,0 l/m 10,5 km/h (2 Bft) W-SW 245 0 min 0 W/m -4,1 C -4,3 C 10,5 km/h (2 Bft)
16.12.2009 00:12 -0,4 C 75 % 1015,5 hPa 0,0 l/m 13,3 km/h (3 Bft) W-SW 240 0 min 0 W/m -4,3 C -6,4 C 13,3 km/h (3 Bft)
16.12.2009 00:17 -0,4 C 75 % 1015,5 hPa 0,0 l/m 15,0 km/h (3 Bft) W-SW 240 0 min 0 W/m -4,3 C -7,5 C 15,0 km/h (3 Bft)
16.12.2009 00:22 -0,4 C 75 % 1015,5 hPa 0,0 l/m 11,9 km/h (2 Bft) W-SW 245 0 min 0 W/m -4,3 C -5,4 C 11,9 km/h (2 Bft)
16.12.2009 00:27 -0,4 C 75 % 1015,5 hPa 0,0 l/m 12,3 km/h (2 Bft) W-SW 245 0 min 0 W/m -4,3 C -5,7 C 12,3 km/h (2 Bft)
16.12.2009 00:32 -0,3 C 73 % 1015,5 hPa 0,0 l/m 13,6 km/h (3 Bft) W-SW 250 0 min 0 W/m -4,5 C -6,5 C 13,6 km/h (3 Bft)
16.12.2009 00:37 -0,3 C 73 % 1015,5 hPa 0,0 l/m 13,2 km/h (3 Bft) W-SW 250 0 min 0 W/m -4,5 C -6,2 C 13,2 km/h (3 Bft)
16.12.2009 00:42 -0,3 C 73 % 1015,5 hPa 0,0 l/m 15,9 km/h (3 Bft) W-SW 255 0 min 0 W/m -4,5 C -7,9 C 15,9 km/h (3 Bft)
16.12.2009 00:47 -0,4 C 73 % 1015,5 hPa 0,0 l/m 15,3 km/h (3 Bft) W-SW 250 0 min 0 W/m -4,6 C -7,6 C 15,3 km/h (3 Bft)
16.12.2009 00:52 -0,5 C 73 % 1015,5 hPa 0,0 l/m 14,4 km/h (3 Bft) W-SW 250 0 min 0 W/m -4,7 C -7,2 C 14,4 km/h (3 Bft)
16.12.2009 00:57 -0,5 C 73 % 1015,5 hPa 0,0 l/m 17,5 km/h (3 Bft) W-SW 250 0 min 0 W/m -4,7 C -9,0 C 17,5 km/h (3 Bft)
16.12.2009 01:02 -0,5 C 73 % 1015,5 hPa 0,0 l/m 13,9 km/h (3 Bft) W-SW 250 0 min 0 W/m -4,7 C -6,9 C 13,9 km/h (3 Bft)
16.12.2009 01:07 -0,5 C 73 % 1015,5 hPa 0,0 l/m 13,9 km/h (3 Bft) W-SW 250 0 min 0 W/m -4,7 C -6,9 C 13,9 km/h (3 Bft)
16.12.2009 01:12 -0,5 C 73 % 1015,5 hPa 0,0 l/m 13,7 km/h (3 Bft) W-SW 250 0 min 0 W/m -4,7 C -6,8 C 13,7 km/h (3 Bft)
16.12.2009 01:17 -0,5 C 73 % 1015,5 hPa 0,0 l/m 16,3 km/h (3 Bft) W 260 0 min 0 W/m -4,7 C -8,4 C 16,3 km/h (3 Bft)
16.12.2009 01:22 -0,6 C 73 % 1015,5 hPa 0,0 l/m 12,9 km/h (3 Bft) W-SW 250 0 min 0 W/m -4,8 C -6,3 C 12,9 km/h (3 Bft)
16.12.2009 01:27 -0,6 C 73 % 1014,5 hPa 0,0 l/m 17,7 km/h (3 Bft) W-SW 255 0 min 0 W/m -4,8 C -9,3 C 17,7 km/h (3 Bft)
16.12.2009 01:32 -0,6 C 73 % 1014,5 hPa 0,0 l/m 15,1 km/h (3 Bft) W-SW 255 0 min 0 W/m -4,8 C -7,8 C 15,1 km/h (3 Bft)
16.12.2009 01:37 -0,6 C 73 % 1014,5 hPa 0,0 l/m 15,5 km/h (3 Bft) W 260 0 min 0 W/m -4,8 C -8,0 C 15,5 km/h (3 Bft)
16.12.2009 01:42 -0,6 C 73 % 1014,5 hPa 0,0 l/m 19,0 km/h (3 Bft) W-SW 255 0 min 0 W/m -4,8 C -9,9 C 19,0 km/h (3 Bft)
16.12.2009 01:47 -0,6 C 73 % 1014,5 hPa 0,0 l/m 18,7 km/h (3 Bft) W-SW 255 0 min 0 W/m -4,8 C -9,8 C 18,7 km/h (3 Bft)
16.12.2009 01:52 -0,6 C 73 % 1014,5 hPa 0,0 l/m 16,0 km/h (3 Bft) W 265 0 min 0 W/m -4,8 C -8,3 C 16,0 km/h (3 Bft)
16.12.2009 01:57 -0,6 C 73 % 1014,5 hPa 0,0 l/m 16,9 km/h (3 Bft) W-SW 255 0 min 0 W/m -4,8 C -8,8 C 16,9 km/h (3 Bft)
16.12.2009 02:02 -0,6 C 73 % 1014,5 hPa 0,0 l/m 15,2 km/h (3 Bft) W-SW 250 0 min 0 W/m -4,8 C -7,8 C 15,2 km/h (3 Bft)
16.12.2009 02:07 -0,6 C 73 % 1014,5 hPa 0,0 l/m 15,2 km/h (3 Bft) W-SW 250 0 min 0 W/m -4,8 C -7,8 C 15,2 km/h (3 Bft)
16.12.2009 02:12 -0,6 C 73 % 1014,5 hPa 0,0 l/m 17,8 km/h (3 Bft) W 260 0 min 0 W/m -4,8 C -9,3 C 17,8 km/h (3 Bft)
16.12.2009 02:17 -0,6 C 73 % 1014,5 hPa 0,0 l/m 18,7 km/h (3 Bft) W-SW 250 0 min 0 W/m -4,8 C -9,8 C 18,7 km/h (3 Bft)
16.12.2009 02:22 -0,6 C 73 % 1014,5 hPa 0,0 l/m 15,5 km/h (3 Bft) W-SW 255 0 min 0 W/m -4,8 C -8,0 C 15,5 km/h (3 Bft)
16.12.2009 02:26 -0,6 C 73 % 1014,5 hPa 0,0 l/m 17,2 km/h (3 Bft) W-SW 250 0 min 0 W/m -4,8 C -9,0 C 17,2 km/h (3 Bft)
16.12.2009 02:31 -0,6 C 73 % 1014,5 hPa 0,0 l/m 19,4 km/h (3 Bft) W-SW 250 0 min 0 W/m -4,8 C -10,1 C 19,4 km/h (3 Bft)
16.12.2009 02:37 -0,6 C 73 % 1014,5 hPa 0,0 l/m 18,5 km/h (3 Bft) W-SW 250 0 min 0 W/m -4,8 C -9,7 C 18,5 km/h (3 Bft)
16.12.2009 02:42 -0,6 C 73 % 1014,5 hPa 0,0 l/m 16,4 km/h (3 Bft) W-SW 255 0 min 0 W/m -4,8 C -8,5 C 16,4 km/h (3 Bft)
16.12.2009 02:47 -0,6 C 73 % 1014,5 hPa 0,0 l/m 16,2 km/h (3 Bft) W-SW 250 0 min 0 W/m -4,8 C -8,4 C 16,2 km/h (3 Bft)
16.12.2009 02:52 -0,6 C 73 % 1014,5 hPa 0,0 l/m 16,5 km/h (3 Bft) W-SW 255 0 min 0 W/m -4,8 C -8,6 C 16,5 km/h (3 Bft)
16.12.2009 02:57 -0,6 C 73 % 1014,5 hPa 0,0 l/m 18,8 km/h (3 Bft) W-SW 255 0 min 0 W/m -4,8 C -9,8 C 18,8 km/h (3 Bft)
16.12.2009 03:02 -0,6 C 73 % 1013,5 hPa 0,0 l/m 18,7 km/h (3 Bft) W-SW 255 0 min 0 W/m -4,8 C -9,8 C 18,7 km/h (3 Bft)
16.12.2009 03:07 -0,6 C 73 % 1013,5 hPa 0,0 l/m 11,8 km/h (2 Bft) W-SW 255 0 min 0 W/m -4,8 C -5,5 C 11,8 km/h (2 Bft)
16.12.2009 03:12 -0,6 C 73 % 1013,5 hPa 0,0 l/m 17,5 km/h (3 Bft) W 265 0 min 0 W/m -4,8 C -9,1 C 17,5 km/h (3 Bft)
16.12.2009 03:17 -0,6 C 73 % 1013,5 hPa 0,0 l/m 15,9 km/h (3 Bft) W-SW 255 0 min 0 W/m -4,8 C -8,2 C 15,9 km/h (3 Bft)
16.12.2009 03:22 -0,6 C 73 % 1013,5 hPa 0,0 l/m 15,1 km/h (3 Bft) W 260 0 min 0 W/m -4,8 C -7,8 C 15,1 km/h (3 Bft)
16.12.2009 03:27 -0,6 C 73 % 1013,5 hPa 0,0 l/m 15,9 km/h (3 Bft) W 265 0 min 0 W/m -4,8 C -8,2 C 15,9 km/h (3 Bft)
16.12.2009 03:32 -0,6 C 73 % 1013,5 hPa 0,0 l/m 19,5 km/h (3 Bft) W 260 0 min 0 W/m -4,8 C -10,2 C 19,5 km/h (3 Bft)
16.12.2009 03:37 -0,6 C 73 % 1013,5 hPa 0,0 l/m 18,1 km/h (3 Bft) W-SW 250 0 min 0 W/m -4,8 C -9,5 C 18,1 km/h (3 Bft)
16.12.2009 03:42 -0,6 C 73 % 1013,5 hPa 0,0 l/m 17,4 km/h (3 Bft) W 260 0 min 0 W/m -4,8 C -9,1 C 17,4 km/h (3 Bft)
16.12.2009 03:47 -0,6 C 73 % 1013,5 hPa 0,0 l/m 15,6 km/h (3 Bft) W-SW 250 0 min 0 W/m -4,8 C -8,1 C 15,6 km/h (3 Bft)
16.12.2009 03:52 -0,6 C 73 % 1013,5 hPa 0,0 l/m 15,1 km/h (3 Bft) W-SW 250 0 min 0 W/m -4,8 C -7,8 C 15,1 km/h (3 Bft)
16.12.2009 03:57 -0,6 C 73 % 1013,5 hPa 0,0 l/m 20,5 km/h (4 Bft) W-SW 255 0 min 0 W/m -4,8 C -10,6 C 20,5 km/h (4 Bft)
16.12.2009 04:02 -0,6 C 73 % 1013,5 hPa 0,0 l/m 16,3 km/h (3 Bft) W 260 0 min 0 W/m -4,8 C -8,5 C 16,3 km/h (3 Bft)
16.12.2009 04:07 -0,6 C 73 % 1013,5 hPa 0,0 l/m 18,5 km/h (3 Bft) W-SW 255 0 min 0 W/m -4,8 C -9,7 C 18,5 km/h (3 Bft)
16.12.2009 04:12 -0,6 C 73 % 1013,5 hPa 0,0 l/m 22,6 km/h (4 Bft) W 265 0 min 0 W/m -4,8 C -11,6 C 22,6 km/h (4 Bft)
16.12.2009 04:17 -0,6 C 73 % 1013,5 hPa 0,0 l/m 19,2 km/h (3 Bft) W 260 0 min 0 W/m -4,8 C -10,0 C 19,2 km/h (3 Bft)
16.12.2009 04:22 -0,6 C 73 % 1012,5 hPa 0,0 l/m 19,7 km/h (3 Bft) W-SW 255 0 min 0 W/m -4,8 C -10,3 C 19,7 km/h (3 Bft)
16.12.2009 04:27 -0,6 C 73 % 1012,5 hPa 0,0 l/m 19,9 km/h (4 Bft) W 260 0 min 0 W/m -4,8 C -10,4 C 19,9 km/h (4 Bft)
16.12.2009 04:32 -0,6 C 73 % 1012,5 hPa 0,0 l/m 24,8 km/h (4 Bft) W 265 0 min 0 W/m -4,8 C -12,5 C 24,8 km/h (4 Bft)
16.12.2009 04:37 -0,6 C 73 % 1012,5 hPa 0,0 l/m 24,8 km/h (4 Bft) W 265 0 min 0 W/m -4,8 C -12,5 C 24,8 km/h (4 Bft)
16.12.2009 04:42 -0,6 C 73 % 1012,5 hPa 0,0 l/m 18,3 km/h (3 Bft) W 265 0 min 0 W/m -4,8 C -9,6 C 18,3 km/h (3 Bft)
16.12.2009 04:47 -0,6 C 73 % 1012,5 hPa 0,0 l/m 17,9 km/h (3 Bft) W 265 0 min 0 W/m -4,8 C -9,4 C 17,9 km/h (3 Bft)
16.12.2009 04:52 -0,6 C 73 % 1012,5 hPa 0,0 l/m 17,1 km/h (3 Bft) W 265 0 min 0 W/m -4,8 C -8,9 C 17,1 km/h (3 Bft)
16.12.2009 04:57 -0,6 C 73 % 1012,5 hPa 0,0 l/m 14,8 km/h (3 Bft) W 260 0 min 0 W/m -4,8 C -7,6 C 14,8 km/h (3 Bft)
16.12.2009 05:02 -0,6 C 73 % 1012,5 hPa 0,0 l/m 23,3 km/h (4 Bft) W 260 0 min 0 W/m -4,8 C -11,9 C 23,3 km/h (4 Bft)
16.12.2009 05:07 -0,6 C 73 % 1012,5 hPa 0,0 l/m 19,3 km/h (3 Bft) W-SW 255 0 min 0 W/m -4,8 C -10,1 C 19,3 km/h (3 Bft)
16.12.2009 05:12 -0,6 C 73 % 1012,5 hPa 0,0 l/m 21,6 km/h (4 Bft) W 260 0 min 0 W/m -4,8 C -11,1 C 21,6 km/h (4 Bft)
16.12.2009 05:17 -0,6 C 73 % 1012,5 hPa 0,0 l/m 24,8 km/h (4 Bft) W 260 0 min 0 W/m -4,8 C -12,5 C 24,8 km/h (4 Bft)
16.12.2009 05:22 -0,6 C 73 % 1011,5 hPa 0,0 l/m 23,7 km/h (4 Bft) W-SW 255 0 min 0 W/m -4,8 C -12,0 C 23,7 km/h (4 Bft)
16.12.2009 05:27 -0,6 C 73 % 1011,5 hPa 0,0 l/m 21,9 km/h (4 Bft) W 260 0 min 0 W/m -4,8 C -11,3 C 21,9 km/h (4 Bft)
16.12.2009 05:32 -0,6 C 73 % 1011,5 hPa 0,0 l/m 20,3 km/h (4 Bft) W-SW 255 0 min 0 W/m -4,8 C -10,5 C 20,3 km/h (4 Bft)
16.12.2009 05:37 -0,6 C 73 % 1011,5 hPa 0,0 l/m 24,7 km/h (4 Bft) W-SW 255 0 min 0 W/m -4,8 C -12,4 C 24,7 km/h (4 Bft)
16.12.2009 05:42 -0,6 C 73 % 1011,5 hPa 0,0 l/m 25,9 km/h (4 Bft) W-SW 255 0 min 0 W/m -4,8 C -12,9 C 25,9 km/h (4 Bft)
16.12.2009 05:47 -0,6 C 73 % 1011,5 hPa 0,0 l/m 20,8 km/h (4 Bft) W 260 0 min 0 W/m -4,8 C -10,8 C 20,8 km/h (4 Bft)
16.12.2009 05:52 -0,6 C 73 % 1011,5 hPa 0,0 l/m 20,5 km/h (4 Bft) W 260 0 min 0 W/m -4,8 C -10,6 C 20,5 km/h (4 Bft)
16.12.2009 05:57 -0,6 C 73 % 1011,5 hPa 0,0 l/m 20,1 km/h (4 Bft) W-SW 255 0 min 0 W/m -4,8 C -10,5 C 20,1 km/h (4 Bft)
16.12.2009 06:02 -0,6 C 73 % 1011,5 hPa 0,0 l/m 21,6 km/h (4 Bft) W-SW 250 0 min 0 W/m -4,8 C -11,1 C 21,6 km/h (4 Bft)
16.12.2009 06:07 -0,6 C 73 % 1011,5 hPa 0,0 l/m 19,6 km/h (3 Bft) W-SW 255 0 min 0 W/m -4,8 C -10,2 C 19,6 km/h (3 Bft)
16.12.2009 06:12 -0,6 C 73 % 1011,5 hPa 0,0 l/m 23,6 km/h (4 Bft) W-SW 255 0 min 0 W/m -4,8 C -12,0 C 23,6 km/h (4 Bft)
16.12.2009 06:17 -0,6 C 73 % 1011,5 hPa 0,0 l/m 21,9 km/h (4 Bft) W-SW 255 0 min 0 W/m -4,8 C -11,3 C 21,9 km/h (4 Bft)
16.12.2009 06:22 -0,6 C 73 % 1011,5 hPa 0,0 l/m 23,5 km/h (4 Bft) W 260 0 min 0 W/m -4,8 C -11,9 C 23,5 km/h (4 Bft)
16.12.2009 06:27 -0,6 C 73 % 1011,5 hPa 0,0 l/m 23,5 km/h (4 Bft) W 260 0 min 0 W/m -4,8 C -11,9 C 23,5 km/h (4 Bft)
16.12.2009 06:32 -0,6 C 73 % 1011,5 hPa 0,0 l/m 22,0 km/h (4 Bft) W-SW 255 0 min 0 W/m -4,8 C -11,3 C 22,0 km/h (4 Bft)
16.12.2009 06:37 -0,6 C 73 % 1011,5 hPa 0,0 l/m 20,8 km/h (4 Bft) W-SW 250 0 min 0 W/m -4,8 C -10,8 C 20,8 km/h (4 Bft)
16.12.2009 06:42 -0,6 C 73 % 1010,5 hPa 0,0 l/m 23,8 km/h (4 Bft) W-SW 255 0 min 0 W/m -4,8 C -12,1 C 23,8 km/h (4 Bft)
16.12.2009 06:47 -0,6 C 73 % 1010,5 hPa 0,0 l/m 21,5 km/h (4 Bft) W-SW 250 0 min 0 W/m -4,8 C -11,1 C 21,5 km/h (4 Bft)
16.12.2009 06:52 -0,6 C 73 % 1010,5 hPa 0,0 l/m 18,1 km/h (3 Bft) W-SW 250 0 min 0 W/m -4,8 C -9,5 C 18,1 km/h (3 Bft)
16.12.2009 06:57 -0,6 C 73 % 1010,5 hPa 0,0 l/m 17,5 km/h (3 Bft) W-SW 250 0 min 0 W/m -4,8 C -9,1 C 17,5 km/h (3 Bft)
16.12.2009 07:02 -0,6 C 73 % 1010,5 hPa 0,0 l/m 21,0 km/h (4 Bft) W-SW 245 0 min 0 W/m -4,8 C -10,9 C 21,0 km/h (4 Bft)
16.12.2009 07:07 -0,6 C 73 % 1010,5 hPa 0,0 l/m 17,6 km/h (3 Bft) W-SW 250 0 min 0 W/m -4,8 C -9,2 C 17,6 km/h (3 Bft)
16.12.2009 07:12 -0,6 C 73 % 1010,5 hPa 0,0 l/m 20,0 km/h (4 Bft) W-SW 240 0 min 0 W/m -4,8 C -10,4 C 20,0 km/h (4 Bft)
16.12.2009 07:17 -0,6 C 73 % 1010,5 hPa 0,0 l/m 22,5 km/h (4 Bft) W-SW 245 0 min 0 W/m -4,8 C -11,5 C 22,5 km/h (4 Bft)
16.12.2009 07:22 -0,6 C 73 % 1010,5 hPa 0,0 l/m 20,2 km/h (4 Bft) SW 235 0 min 0 W/m -4,8 C -10,5 C 20,2 km/h (4 Bft)
16.12.2009 07:27 -0,6 C 73 % 1010,5 hPa 0,0 l/m 24,1 km/h (4 Bft) W-SW 250 0 min 0 W/m -4,8 C -12,2 C 24,1 km/h (4 Bft)
16.12.2009 07:32 -0,6 C 73 % 1010,5 hPa 0,0 l/m 18,1 km/h (3 Bft) W-SW 245 0 min 0 W/m -4,8 C -9,5 C 18,1 km/h (3 Bft)
16.12.2009 07:37 -0,6 C 73 % 1010,5 hPa 0,0 l/m 20,3 km/h (4 Bft) W-SW 250 0 min 0 W/m -4,8 C -10,5 C 20,3 km/h (4 Bft)
16.12.2009 07:42 -0,6 C 73 % 1010,5 hPa 0,0 l/m 24,0 km/h (4 Bft) W-SW 245 0 min 0 W/m -4,8 C -12,1 C 24,0 km/h (4 Bft)
16.12.2009 07:47 -0,6 C 73 % 1010,5 hPa 0,0 l/m 14,6 km/h (3 Bft) W-SW 240 0 min 0 W/m -4,8 C -7,5 C 14,6 km/h (3 Bft)
16.12.2009 07:52 -0,6 C 73 % 1010,5 hPa 0,0 l/m 21,5 km/h (4 Bft) W-SW 250 0 min 0 W/m -4,8 C -11,1 C 21,5 km/h (4 Bft)
16.12.2009 07:57 -0,6 C 73 % 1010,5 hPa 0,0 l/m 17,0 km/h (3 Bft) W-SW 245 0 min 0 W/m -4,8 C -8,9 C 17,0 km/h (3 Bft)
16.12.2009 08:02 -0,6 C 73 % 1010,5 hPa 0,0 l/m 21,5 km/h (4 Bft) W-SW 240 0 min 0 W/m -4,8 C -11,1 C 21,5 km/h (4 Bft)
16.12.2009 08:07 -0,6 C 73 % 1010,5 hPa 0,0 l/m 23,8 km/h (4 Bft) W-SW 245 0 min 0 W/m -4,8 C -12,1 C 23,8 km/h (4 Bft)
16.12.2009 08:12 -0,6 C 73 % 1010,5 hPa 0,0 l/m 16,8 km/h (3 Bft) W-SW 240 0 min 0 W/m -4,8 C -8,8 C 16,8 km/h (3 Bft)
16.12.2009 08:17 -0,6 C 73 % 1010,5 hPa 0,0 l/m 21,7 km/h (4 Bft) W-SW 240 0 min 0 W/m -4,8 C -11,2 C 21,7 km/h (4 Bft)
16.12.2009 08:22 -0,6 C 73 % 1010,5 hPa 0,0 l/m 18,5 km/h (3 Bft) SW 225 0 min 0 W/m -4,8 C -9,7 C 18,5 km/h (3 Bft)
16.12.2009 08:27 -0,6 C 73 % 1009,5 hPa 0,0 l/m 20,3 km/h (4 Bft) W-SW 240 0 min 0 W/m -4,8 C -10,5 C 20,3 km/h (4 Bft)
16.12.2009 08:32 -0,6 C 73 % 1009,5 hPa 0,0 l/m 20,3 km/h (4 Bft) W-SW 245 0 min 0 W/m -4,8 C -10,5 C 20,3 km/h (4 Bft)
16.12.2009 08:37 -0,6 C 73 % 1009,5 hPa 0,0 l/m 20,6 km/h (4 Bft) W-SW 250 0 min 0 W/m -4,8 C -10,7 C 20,6 km/h (4 Bft)
16.12.2009 08:42 -0,6 C 73 % 1009,5 hPa 0,0 l/m 21,5 km/h (4 Bft) W-SW 245 0 min 0 W/m -4,8 C -11,1 C 21,5 km/h (4 Bft)
16.12.2009 08:47 -0,6 C 73 % 1009,5 hPa 0,0 l/m 27,6 km/h (5 Bft) W-SW 250 0 min 0 W/m -4,8 C -13,5 C 27,6 km/h (5 Bft)
16.12.2009 08:52 -0,6 C 73 % 1009,5 hPa 0,0 l/m 22,9 km/h (4 Bft) W-SW 240 0 min 0 W/m -4,8 C -11,7 C 22,9 km/h (4 Bft)
16.12.2009 08:57 -0,6 C 73 % 1009,5 hPa 0,0 l/m 22,5 km/h (4 Bft) W-SW 250 0 min 0 W/m -4,8 C -11,5 C 22,5 km/h (4 Bft)
16.12.2009 09:02 -0,6 C 73 % 1009,5 hPa 0,0 l/m 22,5 km/h (4 Bft) W-SW 245 0 min 0 W/m -4,8 C -11,5 C 22,5 km/h (4 Bft)
16.12.2009 09:06 -0,6 C 73 % 1009,5 hPa 0,0 l/m 19,5 km/h (3 Bft) W-SW 250 0 min 0 W/m -4,8 C -10,2 C 19,5 km/h (3 Bft)
16.12.2009 09:11 -0,6 C 73 % 1009,5 hPa 0,0 l/m 24,4 km/h (4 Bft) W-SW 250 0 min 0 W/m -4,8 C -12,3 C 24,4 km/h (4 Bft)
16.12.2009 09:17 -0,6 C 73 % 1009,5 hPa 0,0 l/m 20,9 km/h (4 Bft) W-SW 245 0 min 0 W/m -4,8 C -10,8 C 20,9 km/h (4 Bft)
16.12.2009 09:22 -0,6 C 73 % 1009,5 hPa 0,0 l/m 19,9 km/h (4 Bft) W-SW 240 0 min 0 W/m -4,8 C -10,4 C 19,9 km/h (4 Bft)
16.12.2009 09:27 -0,6 C 73 % 1009,5 hPa 0,0 l/m 25,7 km/h (4 Bft) W-SW 240 0 min 0 W/m -4,8 C -12,8 C 25,7 km/h (4 Bft)
16.12.2009 09:32 -0,6 C 73 % 1009,5 hPa 0,0 l/m 19,5 km/h (3 Bft) W-SW 250 0 min 0 W/m -4,8 C -10,2 C 19,5 km/h (3 Bft)
16.12.2009 09:37 -0,6 C 73 % 1009,5 hPa 0,0 l/m 24,8 km/h (4 Bft) W-SW 240 0 min 0 W/m -4,8 C -12,5 C 24,8 km/h (4 Bft)
16.12.2009 09:42 -0,6 C 73 % 1009,5 hPa 0,0 l/m 23,1 km/h (4 Bft) W-SW 245 0 min 0 W/m -4,8 C -11,8 C 23,1 km/h (4 Bft)
16.12.2009 09:47 -0,6 C 73 % 1009,5 hPa 0,0 l/m 22,3 km/h (4 Bft) W-SW 245 0 min 0 W/m -4,8 C -11,4 C 22,3 km/h (4 Bft)
16.12.2009 09:52 -0,6 C 73 % 1009,5 hPa 0,0 l/m 25,3 km/h (4 Bft) W-SW 250 0 min 0 W/m -4,8 C -12,6 C 25,3 km/h (4 Bft)
16.12.2009 09:57 -0,6 C 73 % 1009,5 hPa 0,0 l/m 25,3 km/h (4 Bft) W-SW 250 0 min 0 W/m -4,8 C -12,6 C 25,3 km/h (4 Bft)
16.12.2009 10:02 -0,6 C 73 % 1009,5 hPa 0,0 l/m 20,6 km/h (4 Bft) W-SW 250 0 min 0 W/m -4,8 C -10,7 C 20,6 km/h (4 Bft)
16.12.2009 10:07 -0,6 C 73 % 1009,5 hPa 0,0 l/m 23,8 km/h (4 Bft) W-SW 240 0 min 0 W/m -4,8 C -12,1 C 23,8 km/h (4 Bft)
16.12.2009 10:12 -0,6 C 73 % 1009,5 hPa 0,0 l/m 25,4 km/h (4 Bft) W-SW 250 0 min 0 W/m -4,8 C -12,7 C 25,4 km/h (4 Bft)
16.12.2009 10:17 -0,6 C 73 % 1008,5 hPa 0,0 l/m 19,7 km/h (3 Bft) SW 235 0 min 0 W/m -4,8 C -10,3 C 19,7 km/h (3 Bft)
16.12.2009 10:22 -0,6 C 73 % 1008,5 hPa 0,0 l/m 23,8 km/h (4 Bft) SW 235 0 min 0 W/m -4,8 C -12,1 C 23,8 km/h (4 Bft)
16.12.2009 10:27 -0,6 C 73 % 1008,5 hPa 0,0 l/m 20,0 km/h (4 Bft) W-SW 245 0 min 0 W/m -4,8 C -10,4 C 20,0 km/h (4 Bft)
16.12.2009 10:32 -0,6 C 73 % 1008,5 hPa 0,0 l/m 33,3 km/h (5 Bft) W-SW 245 0 min 0 W/m -4,8 C -15,2 C 33,3 km/h (5 Bft)
16.12.2009 10:37 -0,6 C 73 % 1008,5 hPa 0,0 l/m 28,6 km/h (5 Bft) SW 235 0 min 0 W/m -4,8 C -13,8 C 28,6 km/h (5 Bft)
16.12.2009 10:42 -0,6 C 73 % 1008,5 hPa 0,0 l/m 31,8 km/h (5 Bft) W-SW 240 0 min 0 W/m -4,8 C -14,8 C 31,8 km/h (5 Bft)
16.12.2009 10:47 -0,6 C 73 % 1008,5 hPa 0,0 l/m 29,5 km/h (5 Bft) W-SW 240 0 min 0 W/m -4,8 C -14,1 C 29,5 km/h (5 Bft)
16.12.2009 10:52 -0,6 C 73 % 1008,5 hPa 0,0 l/m 27,1 km/h (5 Bft) W-SW 240 0 min 0 W/m -4,8 C -13,3 C 27,1 km/h (5 Bft)
16.12.2009 10:57 -0,6 C 73 % 1008,5 hPa 0,0 l/m 28,6 km/h (5 Bft) W-SW 240 0 min 0 W/m -4,8 C -13,8 C 28,6 km/h (5 Bft)
16.12.2009 11:02 -0,6 C 73 % 1008,5 hPa 0,0 l/m 33,6 km/h (5 Bft) W-SW 245 0 min 0 W/m -4,8 C -15,3 C 33,6 km/h (5 Bft)
16.12.2009 11:07 -0,6 C 73 % 1008,5 hPa 0,0 l/m 29,5 km/h (5 Bft) W-SW 250 0 min 0 W/m -4,8 C -14,1 C 29,5 km/h (5 Bft)
16.12.2009 11:12 -0,6 C 73 % 1008,5 hPa 0,0 l/m 34,6 km/h (5 Bft) SW 235 0 min 0 W/m -4,8 C -15,6 C 34,6 km/h (5 Bft)
16.12.2009 11:17 -0,6 C 73 % 1008,5 hPa 0,0 l/m 28,3 km/h (5 Bft) SW 230 0 min 0 W/m -4,8 C -13,7 C 28,3 km/h (5 Bft)
16.12.2009 11:22 -0,6 C 73 % 1008,5 hPa 0,0 l/m 30,8 km/h (5 Bft) SW 230 0 min 0 W/m -4,8 C -14,5 C 30,8 km/h (5 Bft)
16.12.2009 11:27 -0,6 C 73 % 1008,5 hPa 0,0 l/m 35,3 km/h (5 Bft) W-SW 245 0 min 0 W/m -4,8 C -15,7 C 35,3 km/h (5 Bft)
16.12.2009 11:32 -0,6 C 73 % 1008,5 hPa 0,0 l/m 28,8 km/h (5 Bft) W-SW 240 0 min 0 W/m -4,8 C -13,9 C 28,8 km/h (5 Bft)
16.12.2009 11:37 -0,6 C 73 % 1008,5 hPa 0,0 l/m 33,5 km/h (5 Bft) W-SW 240 0 min 0 W/m -4,8 C -15,3 C 33,5 km/h (5 Bft)
16.12.2009 11:42 -0,6 C 73 % 1008,5 hPa 0,0 l/m 35,5 km/h (5 Bft) W-SW 245 0 min 0 W/m -4,8 C -15,8 C 35,5 km/h (5 Bft)
16.12.2009 11:47 -0,6 C 73 % 1008,5 hPa 0,0 l/m 35,5 km/h (5 Bft) W-SW 245 0 min 0 W/m -4,8 C -15,8 C 35,5 km/h (5 Bft)
16.12.2009 11:52 -0,6 C 73 % 1007,5 hPa 0,0 l/m 33,3 km/h (5 Bft) W-SW 240 0 min 0 W/m -4,8 C -15,2 C 33,3 km/h (5 Bft)
16.12.2009 11:57 -0,6 C 73 % 1007,5 hPa 0,0 l/m 30,6 km/h (5 Bft) W-SW 250 0 min 0 W/m -4,8 C -14,4 C 30,6 km/h (5 Bft)
16.12.2009 12:02 -0,6 C 73 % 1007,5 hPa 0,0 l/m 27,8 km/h (5 Bft) W-SW 250 0 min 0 W/m -4,8 C -13,5 C 27,8 km/h (5 Bft)
16.12.2009 12:07 -0,6 C 73 % 1007,5 hPa 0,0 l/m 30,0 km/h (5 Bft) W-SW 240 0 min 0 W/m -4,8 C -14,3 C 30,0 km/h (5 Bft)
16.12.2009 12:12 -0,6 C 73 % 1007,5 hPa 0,0 l/m 33,1 km/h (5 Bft) W-SW 250 0 min 0 W/m -4,8 C -15,2 C 33,1 km/h (5 Bft)
16.12.2009 12:17 -0,6 C 73 % 1007,5 hPa 0,0 l/m 33,4 km/h (5 Bft) W-SW 255 0 min 0 W/m -4,8 C -15,2 C 33,4 km/h (5 Bft)
16.12.2009 12:22 -0,6 C 73 % 1007,5 hPa 0,0 l/m 33,1 km/h (5 Bft) W-SW 245 0 min 0 W/m -4,8 C -15,2 C 33,1 km/h (5 Bft)
16.12.2009 12:27 -0,6 C 73 % 1007,5 hPa 0,0 l/m 26,9 km/h (4 Bft) W-SW 245 0 min 0 W/m -4,8 C -13,2 C 26,9 km/h (4 Bft)
16.12.2009 12:32 -0,6 C 73 % 1007,5 hPa 0,0 l/m 32,5 km/h (5 Bft) W-SW 250 0 min 0 W/m -4,8 C -15,0 C 32,5 km/h (5 Bft)
16.12.2009 12:37 -0,6 C 73 % 1007,5 hPa 0,0 l/m 39,8 km/h (6 Bft) W-SW 255 0 min 0 W/m -4,8 C -16,8 C 39,8 km/h (6 Bft)
16.12.2009 12:42 -0,6 C 73 % 1007,5 hPa 0,0 l/m 33,5 km/h (5 Bft) W-SW 255 0 min 0 W/m -4,8 C -15,3 C 33,5 km/h (5 Bft)
16.12.2009 12:47 -0,6 C 73 % 1007,5 hPa 0,0 l/m 39,4 km/h (6 Bft) W-SW 250 0 min 0 W/m -4,8 C -16,7 C 39,4 km/h (6 Bft)
16.12.2009 12:52 -0,6 C 73 % 1007,5 hPa 0,0 l/m 37,8 km/h (5 Bft) W-SW 245 0 min 0 W/m -4,8 C -16,3 C 37,8 km/h (5 Bft)
16.12.2009 12:57 -0,6 C 73 % 1006,5 hPa 0,0 l/m 38,2 km/h (6 Bft) W-SW 255 0 min 0 W/m -4,8 C -16,4 C 38,2 km/h (6 Bft)
16.12.2009 13:02 -0,6 C 73 % 1006,5 hPa 0,0 l/m 28,3 km/h (5 Bft) W-SW 245 0 min 0 W/m -4,8 C -13,7 C 28,3 km/h (5 Bft)
16.12.2009 13:07 -0,6 C 73 % 1006,5 hPa 0,0 l/m 26,6 km/h (4 Bft) W-SW 240 0 min 0 W/m -4,8 C -13,1 C 26,6 km/h (4 Bft)
16.12.2009 13:12 -0,6 C 73 % 1006,5 hPa 0,0 l/m 34,6 km/h (5 Bft) W-SW 250 0 min 0 W/m -4,8 C -15,6 C 34,6 km/h (5 Bft)
16.12.2009 13:17 -0,6 C 73 % 1006,5 hPa 0,0 l/m 26,6 km/h (4 Bft) W-SW 240 0 min 0 W/m -4,8 C -13,1 C 26,6 km/h (4 Bft)
16.12.2009 13:22 -0,6 C 73 % 1006,5 hPa 0,0 l/m 31,5 km/h (5 Bft) SW 235 0 min 0 W/m -4,8 C -14,7 C 31,5 km/h (5 Bft)
16.12.2009 13:27 -0,6 C 73 % 1006,5 hPa 0,0 l/m 26,1 km/h (4 Bft) W-SW 240 0 min 0 W/m -4,8 C -12,9 C 26,1 km/h (4 Bft)
16.12.2009 13:32 -0,6 C 73 % 1006,5 hPa 0,0 l/m 25,9 km/h (4 Bft) W-SW 240 0 min 0 W/m -4,8 C -12,9 C 25,9 km/h (4 Bft)
16.12.2009 13:37 -0,6 C 73 % 1006,5 hPa 0,0 l/m 25,0 km/h (4 Bft) SW 230 0 min 0 W/m -4,8 C -12,5 C 25,0 km/h (4 Bft)
16.12.2009 13:42 -0,6 C 73 % 1006,5 hPa 0,0 l/m 30,2 km/h (5 Bft) W-SW 240 0 min 0 W/m -4,8 C -14,3 C 30,2 km/h (5 Bft)
16.12.2009 13:47 -0,6 C 73 % 1006,5 hPa 0,0 l/m 21,6 km/h (4 Bft) W-SW 245 0 min 0 W/m -4,8 C -11,1 C 21,6 km/h (4 Bft)
16.12.2009 13:52 -0,6 C 73 % 1006,5 hPa 0,0 l/m 24,1 km/h (4 Bft) SW 235 0 min 0 W/m -4,8 C -12,2 C 24,1 km/h (4 Bft)
16.12.2009 13:57 -0,6 C 73 % 1006,5 hPa 0,0 l/m 18,6 km/h (3 Bft) SW 235 0 min 0 W/m -4,8 C -9,7 C 18,6 km/h (3 Bft)
16.12.2009 14:02 -0,6 C 73 % 1006,5 hPa 0,0 l/m 27,5 km/h (5 Bft) SW 235 0 min 0 W/m -4,8 C -13,4 C 27,5 km/h (5 Bft)
16.12.2009 14:07 -0,6 C 73 % 1006,5 hPa 0,0 l/m 21,4 km/h (4 Bft) W-SW 240 0 min 0 W/m -4,8 C -11,1 C 21,4 km/h (4 Bft)
16.12.2009 14:12 -0,6 C 73 % 1006,5 hPa 0,0 l/m 23,3 km/h (4 Bft) SW 230 0 min 0 W/m -4,8 C -11,9 C 23,3 km/h (4 Bft)
16.12.2009 14:17 -0,6 C 73 % 1006,5 hPa 0,0 l/m 27,3 km/h (5 Bft) SW 230 0 min 0 W/m -4,8 C -13,4 C 27,3 km/h (5 Bft)
16.12.2009 14:22 -0,6 C 73 % 1006,5 hPa 0,0 l/m 25,5 km/h (4 Bft) SW 230 0 min 0 W/m -4,8 C -12,7 C 25,5 km/h (4 Bft)
16.12.2009 14:27 -0,6 C 73 % 1006,5 hPa 0,0 l/m 25,3 km/h (4 Bft) SW 235 0 min 0 W/m -4,8 C -12,6 C 25,3 km/h (4 Bft)
16.12.2009 14:32 -0,6 C 73 % 1006,5 hPa 0,0 l/m 25,8 km/h (4 Bft) SW 230 0 min 0 W/m -4,8 C -12,8 C 25,8 km/h (4 Bft)
16.12.2009 14:37 -0,6 C 73 % 1006,5 hPa 0,0 l/m 22,6 km/h (4 Bft) W-SW 240 0 min 0 W/m -4,8 C -11,6 C 22,6 km/h (4 Bft)
16.12.2009 14:42 -0,6 C 73 % 1006,5 hPa 0,0 l/m 29,3 km/h (5 Bft) SW 225 0 min 0 W/m -4,8 C -14,0 C 29,3 km/h (5 Bft)
16.12.2009 14:47 -0,6 C 73 % 1006,5 hPa 0,0 l/m 25,4 km/h (4 Bft) SW 225 0 min 0 W/m -4,8 C -12,7 C 25,4 km/h (4 Bft)
16.12.2009 14:52 -0,6 C 73 % 1006,5 hPa 0,0 l/m 27,3 km/h (5 Bft) SW 235 0 min 0 W/m -4,8 C -13,4 C 27,3 km/h (5 Bft)
16.12.2009 14:57 -0,6 C 73 % 1006,5 hPa 0,0 l/m 20,2 km/h (4 Bft) W-SW 240 0 min 0 W/m -4,8 C -10,5 C 20,2 km/h (4 Bft)
16.12.2009 15:02 -0,6 C 73 % 1006,5 hPa 0,0 l/m 26,5 km/h (4 Bft) SW 230 0 min 0 W/m -4,8 C -13,1 C 26,5 km/h (4 Bft)
16.12.2009 15:07 -0,6 C 73 % 1006,5 hPa 0,0 l/m 24,3 km/h (4 Bft) SW 230 0 min 0 W/m -4,8 C -12,3 C 24,3 km/h (4 Bft)
16.12.2009 15:12 -0,6 C 73 % 1006,5 hPa 0,0 l/m 24,3 km/h (4 Bft) SW 230 0 min 0 W/m -4,8 C -12,3 C 24,3 km/h (4 Bft)
16.12.2009 15:17 -0,6 C 73 % 1006,5 hPa 0,0 l/m 18,2 km/h (3 Bft) SW 235 0 min 0 W/m -4,8 C -9,5 C 18,2 km/h (3 Bft)
16.12.2009 15:22 -0,6 C 73 % 1006,5 hPa 0,0 l/m 25,3 km/h (4 Bft) SW 225 0 min 0 W/m -4,8 C -12,6 C 25,3 km/h (4 Bft)
16.12.2009 15:27 -0,6 C 73 % 1006,5 hPa 0,0 l/m 20,8 km/h (4 Bft) SW 235 0 min 0 W/m -4,8 C -10,8 C 20,8 km/h (4 Bft)
16.12.2009 15:32 -0,6 C 73 % 1006,5 hPa 0,0 l/m 22,8 km/h (4 Bft) SW 230 0 min 0 W/m -4,8 C -11,7 C 22,8 km/h (4 Bft)
16.12.2009 15:37 -0,6 C 73 % 1005,5 hPa 0,0 l/m 27,0 km/h (5 Bft) SW 235 0 min 0 W/m -4,8 C -13,3 C 27,0 km/h (5 Bft)
16.12.2009 15:42 -0,6 C 73 % 1006,5 hPa 0,0 l/m 19,1 km/h (3 Bft) SW 235 0 min 0 W/m -4,8 C -10,0 C 19,1 km/h (3 Bft)
16.12.2009 15:47 -0,6 C 73 % 1005,5 hPa 0,0 l/m 18,8 km/h (3 Bft) SW 235 0 min 0 W/m -4,8 C -9,8 C 18,8 km/h (3 Bft)
16.12.2009 15:52 -0,6 C 73 % 1006,5 hPa 0,0 l/m 24,0 km/h (4 Bft) SW 230 0 min 0 W/m -4,8 C -12,1 C 24,0 km/h (4 Bft)
16.12.2009 15:56 -0,6 C 73 % 1006,5 hPa 0,0 l/m 23,3 km/h (4 Bft) SW 235 0 min 0 W/m -4,8 C -11,9 C 23,3 km/h (4 Bft)
16.12.2009 16:01 -0,6 C 73 % 1006,5 hPa 0,0 l/m 20,8 km/h (4 Bft) SW 230 0 min 0 W/m -4,8 C -10,8 C 20,8 km/h (4 Bft)
16.12.2009 16:06 -0,6 C 73 % 1006,5 hPa 0,0 l/m 27,9 km/h (5 Bft) SW 235 0 min 0 W/m -4,8 C -13,6 C 27,9 km/h (5 Bft)
16.12.2009 16:12 -0,6 C 73 % 1006,5 hPa 0,0 l/m 26,5 km/h (4 Bft) SW 230 0 min 0 W/m -4,8 C -13,1 C 26,5 km/h (4 Bft)
16.12.2009 16:17 -0,6 C 73 % 1006,5 hPa 0,0 l/m 23,6 km/h (4 Bft) SW 235 0 min 0 W/m -4,8 C -12,0 C 23,6 km/h (4 Bft)
16.12.2009 16:22 -0,6 C 73 % 1006,5 hPa 0,0 l/m 22,0 km/h (4 Bft) W-SW 250 0 min 0 W/m -4,8 C -11,3 C 22,0 km/h (4 Bft)
16.12.2009 16:27 -0,6 C 73 % 1006,5 hPa 0,0 l/m 22,8 km/h (4 Bft) W-SW 240 0 min 0 W/m -4,8 C -11,7 C 22,8 km/h (4 Bft)
16.12.2009 16:32 -0,6 C 73 % 1006,5 hPa 0,0 l/m 19,9 km/h (4 Bft) SW 225 0 min 0 W/m -4,8 C -10,4 C 19,9 km/h (4 Bft)
16.12.2009 16:37 -0,6 C 73 % 1006,5 hPa 0,0 l/m 23,1 km/h (4 Bft) SW 230 0 min 0 W/m -4,8 C -11,8 C 23,1 km/h (4 Bft)
16.12.2009 16:42 -0,6 C 73 % 1005,5 hPa 0,0 l/m 20,5 km/h (4 Bft) SW 230 0 min 0 W/m -4,8 C -10,6 C 20,5 km/h (4 Bft)
16.12.2009 16:47 -0,6 C 73 % 1005,5 hPa 0,0 l/m 18,6 km/h (3 Bft) W-SW 250 0 min 0 W/m -4,8 C -9,7 C 18,6 km/h (3 Bft)
16.12.2009 16:52 -0,6 C 73 % 1005,5 hPa 0,0 l/m 25,2 km/h (4 Bft) W-SW 240 0 min 0 W/m -4,8 C -12,6 C 25,2 km/h (4 Bft)
16.12.2009 16:57 -0,6 C 73 % 1005,5 hPa 0,0 l/m 26,9 km/h (4 Bft) SW 235 0 min 0 W/m -4,8 C -13,2 C 26,9 km/h (4 Bft)
16.12.2009 17:02 -0,6 C 73 % 1005,5 hPa 0,0 l/m 17,9 km/h (3 Bft) SW 235 0 min 0 W/m -4,8 C -9,4 C 17,9 km/h (3 Bft)
16.12.2009 17:07 -0,6 C 73 % 1005,5 hPa 0,0 l/m 17,1 km/h (3 Bft) W-SW 240 0 min 0 W/m -4,8 C -8,9 C 17,1 km/h (3 Bft)
16.12.2009 17:12 -0,6 C 73 % 1006,5 hPa 0,0 l/m 23,6 km/h (4 Bft) SW 235 0 min 0 W/m -4,8 C -12,0 C 23,6 km/h (4 Bft)
16.12.2009 17:17 -0,6 C 73 % 1006,5 hPa 0,0 l/m 27,8 km/h (5 Bft) SW 225 0 min 0 W/m -4,8 C -13,5 C 27,8 km/h (5 Bft)
16.12.2009 17:22 -0,6 C 73 % 1005,5 hPa 0,0 l/m 23,1 km/h (4 Bft) SW 225 0 min 0 W/m -4,8 C -11,8 C 23,1 km/h (4 Bft)
16.12.2009 17:27 -0,6 C 73 % 1005,5 hPa 0,0 l/m 22,0 km/h (4 Bft) SW 225 0 min 0 W/m -4,8 C -11,3 C 22,0 km/h (4 Bft)
16.12.2009 17:32 -0,6 C 73 % 1005,5 hPa 0,0 l/m 16,0 km/h (3 Bft) W-SW 240 0 min 0 W/m -4,8 C -8,3 C 16,0 km/h (3 Bft)
16.12.2009 17:37 -0,6 C 73 % 1005,5 hPa 0,0 l/m 20,5 km/h (4 Bft) SW 230 0 min 0 W/m -4,8 C -10,6 C 20,5 km/h (4 Bft)
16.12.2009 17:42 -0,6 C 73 % 1005,5 hPa 0,0 l/m 24,6 km/h (4 Bft) SW 230 0 min 0 W/m -4,8 C -12,4 C 24,6 km/h (4 Bft)
16.12.2009 17:47 -0,6 C 73 % 1005,5 hPa 0,0 l/m 23,8 km/h (4 Bft) SW 230 0 min 0 W/m -4,8 C -12,1 C 23,8 km/h (4 Bft)
16.12.2009 17:52 -0,6 C 73 % 1005,5 hPa 0,0 l/m 22,1 km/h (4 Bft) W-SW 245 0 min 0 W/m -4,8 C -11,4 C 22,1 km/h (4 Bft)
16.12.2009 17:57 -0,6 C 73 % 1005,5 hPa 0,0 l/m 14,5 km/h (3 Bft) SW 230 0 min 0 W/m -4,8 C -7,4 C 14,5 km/h (3 Bft)
16.12.2009 18:02 -0,6 C 73 % 1005,5 hPa 0,0 l/m 20,1 km/h (4 Bft) SW 230 0 min 0 W/m -4,8 C -10,5 C 20,1 km/h (4 Bft)
16.12.2009 18:07 -0,6 C 73 % 1005,5 hPa 0,0 l/m 22,0 km/h (4 Bft) SW 225 0 min 0 W/m -4,8 C -11,3 C 22,0 km/h (4 Bft)
16.12.2009 18:12 -0,6 C 73 % 1005,5 hPa 0,0 l/m 25,5 km/h (4 Bft) W-SW 250 0 min 0 W/m -4,8 C -12,7 C 25,5 km/h (4 Bft)
16.12.2009 18:17 -0,6 C 73 % 1005,5 hPa 0,0 l/m 19,6 km/h (3 Bft) SW 235 0 min 0 W/m -4,8 C -10,2 C 19,6 km/h (3 Bft)
16.12.2009 18:22 -0,6 C 73 % 1005,5 hPa 0,0 l/m 16,3 km/h (3 Bft) SW 230 0 min 0 W/m -4,8 C -8,5 C 16,3 km/h (3 Bft)
16.12.2009 18:27 -0,6 C 73 % 1005,5 hPa 0,0 l/m 22,2 km/h (4 Bft) SW 230 0 min 0 W/m -4,8 C -11,4 C 22,2 km/h (4 Bft)
16.12.2009 18:32 -0,6 C 73 % 1005,5 hPa 0,0 l/m 22,1 km/h (4 Bft) SW 230 0 min 0 W/m -4,8 C -11,4 C 22,1 km/h (4 Bft)
16.12.2009 18:37 -0,6 C 73 % 1005,5 hPa 0,0 l/m 22,6 km/h (4 Bft) SW 225 0 min 0 W/m -4,8 C -11,6 C 22,6 km/h (4 Bft)
16.12.2009 18:42 -0,6 C 73 % 1005,5 hPa 0,0 l/m 15,7 km/h (3 Bft) SW 230 0 min 0 W/m -4,8 C -8,1 C 15,7 km/h (3 Bft)
16.12.2009 18:47 -0,6 C 73 % 1005,5 hPa 0,0 l/m 22,3 km/h (4 Bft) SW 235 0 min 0 W/m -4,8 C -11,4 C 22,3 km/h (4 Bft)
16.12.2009 18:52 -0,6 C 73 % 1005,5 hPa 0,0 l/m 19,2 km/h (3 Bft) SW 235 0 min 0 W/m -4,8 C -10,0 C 19,2 km/h (3 Bft)
16.12.2009 18:57 -0,6 C 73 % 1005,5 hPa 0,0 l/m 13,2 km/h (3 Bft) SW 230 0 min 0 W/m -4,8 C -6,5 C 13,2 km/h (3 Bft)
16.12.2009 19:02 -0,6 C 73 % 1005,5 hPa 0,0 l/m 18,0 km/h (3 Bft) SW 235 0 min 0 W/m -4,8 C -9,4 C 18,0 km/h (3 Bft)
16.12.2009 19:07 -0,6 C 73 % 1005,5 hPa 0,0 l/m 22,6 km/h (4 Bft) SW 230 0 min 0 W/m -4,8 C -11,6 C 22,6 km/h (4 Bft)
16.12.2009 19:12 -0,6 C 73 % 1005,5 hPa 0,0 l/m 22,0 km/h (4 Bft) SW 225 0 min 0 W/m -4,8 C -11,3 C 22,0 km/h (4 Bft)
16.12.2009 19:17 -0,6 C 73 % 1005,5 hPa 0,0 l/m 19,8 km/h (3 Bft) SW 225 0 min 0 W/m -4,8 C -10,3 C 19,8 km/h (3 Bft)
16.12.2009 19:22 -0,6 C 73 % 1005,5 hPa 0,0 l/m 20,4 km/h (4 Bft) SW 225 0 min 0 W/m -4,8 C -10,6 C 20,4 km/h (4 Bft)
16.12.2009 19:27 -0,6 C 73 % 1005,5 hPa 0,0 l/m 20,0 km/h (4 Bft) SW 230 0 min 0 W/m -4,8 C -10,4 C 20,0 km/h (4 Bft)
16.12.2009 19:32 -0,6 C 73 % 1005,5 hPa 0,0 l/m 18,2 km/h (3 Bft) SW 235 0 min 0 W/m -4,8 C -9,5 C 18,2 km/h (3 Bft)
16.12.2009 19:37 -0,6 C 73 % 1005,5 hPa 0,0 l/m 23,0 km/h (4 Bft) SW 230 0 min 0 W/m -4,8 C -11,7 C 23,0 km/h (4 Bft)
16.12.2009 19:42 -0,6 C 73 % 1005,5 hPa 0,0 l/m 23,2 km/h (4 Bft) SW 230 0 min 0 W/m -4,8 C -11,8 C 23,2 km/h (4 Bft)
16.12.2009 19:47 -0,6 C 73 % 1005,5 hPa 0,0 l/m 21,8 km/h (4 Bft) SW 235 0 min 0 W/m -4,8 C -11,2 C 21,8 km/h (4 Bft)
16.12.2009 19:52 -0,6 C 73 % 1005,5 hPa 0,0 l/m 19,1 km/h (3 Bft) W-SW 240 0 min 0 W/m -4,8 C -10,0 C 19,1 km/h (3 Bft)
16.12.2009 19:57 -0,6 C 73 % 1005,5 hPa 0,0 l/m 21,5 km/h (4 Bft) W-SW 240 0 min 0 W/m -4,8 C -11,1 C 21,5 km/h (4 Bft)
16.12.2009 20:02 -0,6 C 73 % 1005,5 hPa 0,0 l/m 19,8 km/h (3 Bft) SW 235 0 min 0 W/m -4,8 C -10,3 C 19,8 km/h (3 Bft)
16.12.2009 20:07 -0,6 C 73 % 1005,5 hPa 0,0 l/m 14,0 km/h (3 Bft) SW 225 0 min 0 W/m -4,8 C -7,1 C 14,0 km/h (3 Bft)
16.12.2009 20:12 -0,6 C 73 % 1005,5 hPa 0,0 l/m 18,0 km/h (3 Bft) S-SW 210 0 min 0 W/m -4,8 C -9,4 C 18,0 km/h (3 Bft)
16.12.2009 20:17 -0,6 C 73 % 1005,5 hPa 0,0 l/m 22,4 km/h (4 Bft) SW 225 0 min 0 W/m -4,8 C -11,5 C 22,4 km/h (4 Bft)
16.12.2009 20:22 -0,6 C 73 % 1005,5 hPa 0,0 l/m 16,2 km/h (3 Bft) SW 230 0 min 0 W/m -4,8 C -8,4 C 16,2 km/h (3 Bft)
16.12.2009 20:27 -0,6 C 73 % 1005,5 hPa 0,0 l/m 22,6 km/h (4 Bft) SW 230 0 min 0 W/m -4,8 C -11,6 C 22,6 km/h (4 Bft)
16.12.2009 20:32 -0,6 C 73 % 1005,5 hPa 0,0 l/m 18,0 km/h (3 Bft) SW 230 0 min 0 W/m -4,8 C -9,4 C 18,0 km/h (3 Bft)
16.12.2009 20:37 -0,6 C 73 % 1005,5 hPa 0,0 l/m 19,8 km/h (3 Bft) SW 220 0 min 0 W/m -4,8 C -10,3 C 19,8 km/h (3 Bft)
16.12.2009 20:42 -0,6 C 73 % 1005,5 hPa 0,0 l/m 16,9 km/h (3 Bft) W-SW 240 0 min 0 W/m -4,8 C -8,8 C 16,9 km/h (3 Bft)
16.12.2009 20:47 -0,6 C 73 % 1005,5 hPa 0,0 l/m 14,1 km/h (3 Bft) SW 215 0 min 0 W/m -4,8 C -7,1 C 14,1 km/h (3 Bft)
16.12.2009 20:52 -0,6 C 73 % 1005,5 hPa 0,0 l/m 13,8 km/h (3 Bft) SW 215 0 min 0 W/m -4,8 C -6,9 C 13,8 km/h (3 Bft)
16.12.2009 20:57 -0,6 C 73 % 1005,5 hPa 0,0 l/m 17,8 km/h (3 Bft) SW 215 0 min 0 W/m -4,8 C -9,3 C 17,8 km/h (3 Bft)
16.12.2009 21:02 -0,6 C 73 % 1005,5 hPa 0,0 l/m 17,3 km/h (3 Bft) SW 215 0 min 0 W/m -4,8 C -9,0 C 17,3 km/h (3 Bft)
16.12.2009 21:07 -0,6 C 73 % 1005,5 hPa 0,0 l/m 14,3 km/h (3 Bft) SW 230 0 min 0 W/m -4,8 C -7,3 C 14,3 km/h (3 Bft)
16.12.2009 21:12 -0,6 C 73 % 1005,5 hPa 0,0 l/m 21,7 km/h (4 Bft) S-SW 210 0 min 0 W/m -4,8 C -11,2 C 21,7 km/h (4 Bft)
16.12.2009 21:17 -0,6 C 73 % 1005,5 hPa 0,0 l/m 17,8 km/h (3 Bft) SW 215 0 min 0 W/m -4,8 C -9,3 C 17,8 km/h (3 Bft)
16.12.2009 21:22 -0,6 C 73 % 1005,5 hPa 0,0 l/m 19,0 km/h (3 Bft) SW 225 0 min 0 W/m -4,8 C -9,9 C 19,0 km/h (3 Bft)
16.12.2009 21:27 -0,6 C 73 % 1005,5 hPa 0,0 l/m 17,4 km/h (3 Bft) SW 225 0 min 0 W/m -4,8 C -9,1 C 17,4 km/h (3 Bft)
16.12.2009 21:32 -0,6 C 73 % 1005,5 hPa 0,0 l/m 13,2 km/h (3 Bft) SW 220 0 min 0 W/m -4,8 C -6,5 C 13,2 km/h (3 Bft)
16.12.2009 21:37 -0,6 C 73 % 1005,5 hPa 0,0 l/m 15,7 km/h (3 Bft) SW 215 0 min 0 W/m -4,8 C -8,1 C 15,7 km/h (3 Bft)
16.12.2009 21:42 -0,6 C 73 % 1005,5 hPa 0,0 l/m 15,3 km/h (3 Bft) S-SW 200 0 min 0 W/m -4,8 C -7,9 C 15,3 km/h (3 Bft)
16.12.2009 21:47 -0,6 C 73 % 1005,5 hPa 0,0 l/m 14,8 km/h (3 Bft) S-SW 210 0 min 0 W/m -4,8 C -7,6 C 14,8 km/h (3 Bft)
16.12.2009 21:52 -0,6 C 73 % 1005,5 hPa 0,0 l/m 11,8 km/h (2 Bft) S-SW 200 0 min 0 W/m -4,8 C -5,5 C 11,8 km/h (2 Bft)
16.12.2009 21:57 -0,6 C 73 % 1005,5 hPa 0,0 l/m 9,8 km/h (2 Bft) S-SW 210 0 min 0 W/m -4,8 C -3,9 C 9,8 km/h (2 Bft)
16.12.2009 22:02 -0,6 C 73 % 1005,5 hPa 0,0 l/m 11,5 km/h (2 Bft) S-SW 205 0 min 0 W/m -4,8 C -5,3 C 11,5 km/h (2 Bft)
16.12.2009 22:07 -0,6 C 73 % 1005,5 hPa 0,0 l/m 14,9 km/h (3 Bft) S-SW 200 0 min 0 W/m -4,8 C -7,6 C 14,9 km/h (3 Bft)
16.12.2009 22:12 -0,6 C 73 % 1005,5 hPa 0,0 l/m 11,3 km/h (2 Bft) S-SW 195 0 min 0 W/m -4,8 C -5,2 C 11,3 km/h (2 Bft)
16.12.2009 22:17 -0,6 C 73 % 1005,5 hPa 0,0 l/m 10,5 km/h (2 Bft) S-SW 195 0 min 0 W/m -4,8 C -4,5 C 10,5 km/h (2 Bft)
16.12.2009 22:22 -0,6 C 73 % 1005,5 hPa 0,0 l/m 14,0 km/h (3 Bft) S-SW 210 0 min 0 W/m -4,8 C -7,1 C 14,0 km/h (3 Bft)
16.12.2009 22:27 -0,6 C 73 % 1005,5 hPa 0,0 l/m 9,2 km/h (2 Bft) S-SW 205 0 min 0 W/m -4,8 C -3,4 C 9,2 km/h (2 Bft)
16.12.2009 22:32 -0,6 C 73 % 1005,5 hPa 0,0 l/m 7,0 km/h (2 Bft) S-SW 210 0 min 0 W/m -4,8 C -1,2 C 7,0 km/h (2 Bft)
16.12.2009 22:37 -0,6 C 73 % 1005,5 hPa 0,0 l/m 9,5 km/h (2 Bft) S 185 0 min 0 W/m -4,8 C -3,7 C 9,5 km/h (2 Bft)
16.12.2009 22:42 -0,6 C 73 % 1005,5 hPa 0,0 l/m 7,4 km/h (2 Bft) S 190 0 min 0 W/m -4,8 C -1,7 C 7,4 km/h (2 Bft)
16.12.2009 22:47 -0,6 C 73 % 1005,5 hPa 0,0 l/m 4,4 km/h (1 Bft) S 185 0 min 0 W/m -4,8 C -0,6 C 4,4 km/h (1 Bft)
16.12.2009 22:52 -0,6 C 73 % 1005,5 hPa 0,0 l/m 7,1 km/h (2 Bft) S-SW 200 0 min 0 W/m -4,8 C -1,3 C 7,1 km/h (2 Bft)
16.12.2009 22:56 -0,6 C 73 % 1005,5 hPa 0,0 l/m 8,1 km/h (2 Bft) S 190 0 min 0 W/m -4,8 C -2,4 C 8,1 km/h (2 Bft)
16.12.2009 23:02 -0,6 C 73 % 1005,5 hPa 0,0 l/m 10,2 km/h (2 Bft) S-SW 205 0 min 0 W/m -4,8 C -4,3 C 10,2 km/h (2 Bft)
16.12.2009 23:07 -0,6 C 73 % 1005,5 hPa 0,0 l/m 12,0 km/h (2 Bft) S-SW 195 0 min 0 W/m -4,8 C -5,7 C 12,0 km/h (2 Bft)
16.12.2009 23:12 -0,6 C 73 % 1005,5 hPa 0,0 l/m 12,3 km/h (2 Bft) S-SW 210 0 min 0 W/m -4,8 C -5,9 C 12,3 km/h (2 Bft)
16.12.2009 23:17 -0,6 C 73 % 1005,5 hPa 0,0 l/m 13,1 km/h (3 Bft) S 185 0 min 0 W/m -4,8 C -6,5 C 13,1 km/h (3 Bft)
16.12.2009 23:22 -0,6 C 73 % 1005,5 hPa 0,0 l/m 12,2 km/h (2 Bft) S 190 0 min 0 W/m -4,8 C -5,8 C 12,2 km/h (2 Bft)
16.12.2009 23:27 -0,6 C 73 % 1005,5 hPa 0,0 l/m 7,9 km/h (2 Bft) S-SW 195 0 min 0 W/m -4,8 C -2,2 C 7,9 km/h (2 Bft)
16.12.2009 23:32 -0,6 C 73 % 1005,5 hPa 0,0 l/m 10,3 km/h (2 Bft) S 185 0 min 0 W/m -4,8 C -4,4 C 10,3 km/h (2 Bft)
16.12.2009 23:37 -0,6 C 73 % 1005,5 hPa 0,0 l/m 10,1 km/h (2 Bft) S 180 0 min 0 W/m -4,8 C -4,2 C 10,1 km/h (2 Bft)
16.12.2009 23:42 -0,6 C 73 % 1005,5 hPa 0,0 l/m 12,9 km/h (3 Bft) S 180 0 min 0 W/m -4,8 C -6,3 C 12,9 km/h (3 Bft)
16.12.2009 23:47 -0,6 C 73 % 1005,5 hPa 0,0 l/m 7,8 km/h (2 Bft) S 180 0 min 0 W/m -4,8 C -2,1 C 7,8 km/h (2 Bft)
16.12.2009 23:52 -0,6 C 73 % 1005,5 hPa 0,0 l/m 10,2 km/h (2 Bft) S 190 0 min 0 W/m -4,8 C -4,3 C 10,2 km/h (2 Bft)
16.12.2009 23:57 -0,6 C 73 % 1005,5 hPa 0,0 l/m 11,2 km/h (2 Bft) S 180 0 min 0 W/m -4,8 C -5,1 C 11,2 km/h (2 Bft)
_ Min-Zeit 01:22 00:32 15:37 - 22:47 - - - - 01:22 12:37 22:47
Minimum _ -0,6 C 73 % 1005,5 hPa - 4,4 km/h (1 Bft) - - - - -4,8 C -16,8 C 4,4 km/h (1 Bft)
_ Max-Zeit 00:32 00:02 00:02 00:02 12:37 - - 00:02 00:02 00:02 22:47 12:37
Maximum _ -0,3 C 76 % 1015,5 hPa 0,0 l/m 39,8 km/h
W-SW (6 Bft)
- - 0 min 0 W/m -4,1 C -0,6 C 39,8 km/h
W-SW (6 Bft)
Durchschnitt _ -0,6 C 73 % 1008,9 hPa #0,0 l/m 20,7 km/h (4 Bft) W-SW - #0 min. 0 W/m -4,8 C -10,3 C 20,7 km/h (4 Bft)
copyright by Holger Just